Voth, Texas
Current Conditions -  °F | °C
As of 10:15 AM on Thursday 29 Jan 2015 (Local Time) from KBMT Reporting Station
Haze Haze  
Wind Chill: 58°   Ceiling: 100
Heat Index: 58°   Visibility: 0.75mi
Dew Point: 58°   Wind: 0mph
Humidity: 100%   Direction: NA
Pressure: 30.27"   Gusts: NA
Location:  30.17°N, 94.2°W
Report Text: KBMT 291615Z AUTO 00000KT 3/4SM BR OVC001 15/15 A3027 RMK AO2 T01460146
Loading
Personal Weather Stations






























Interactive Weather Map New forecast layout! Learn more

10-Day Weather Forecast

Advertisements
Track Severe Weather on mobile